Time;durP1;ratioP1;P1;durP2;ratioP2;P2;SDS_P1;SDS_P2;PMS_P1;PMS_P2;Temp;Humidity;BMP_temperature;BMP_pressure;BME280_temperature;BME280_humidity;BME280_pressure;Samples;Min_cycle;Max_cycle;Signal;HPM_P1;HPM_P2
2022/08/10 00:01:47;;;;;;;4.17;2.93;;;;;;;15.92;100.00;96991.84;5030215;28;102005;-62
2022/08/10 00:04:14;;;;;;;3.10;2.80;;;;;;;15.92;100.00;96992.63;5029886;28;104995;-62
2022/08/10 00:06:42;;;;;;;2.83;2.63;;;;;;;15.94;100.00;96993.16;5033349;28;104128;-62
2022/08/10 00:09:11;;;;;;;3.17;2.90;;;;;;;15.47;100.00;96994.50;5030129;28;105433;-62
2022/08/10 00:11:38;;;;;;;2.90;2.70;;;;;;;15.39;100.00;96997.69;5029524;28;105019;-62
2022/08/10 00:14:05;;;;;;;2.97;2.73;;;;;;;15.47;100.00;97000.66;5030087;28;102003;-62
2022/08/10 00:16:32;;;;;;;2.73;2.53;;;;;;;15.50;100.00;97005.50;5029819;28;104975;-62
2022/08/10 00:19:00;;;;;;;3.13;2.90;;;;;;;15.33;100.00;96996.88;5029116;28;105144;-62
2022/08/10 00:21:27;;;;;;;3.83;3.40;;;;;;;15.50;100.00;96993.94;5031388;28;101783;-62
2022/08/10 00:23:54;;;;;;;3.40;3.10;;;;;;;15.49;100.00;96992.34;5029460;28;105420;-62
2022/08/10 00:26:23;;;;;;;3.43;3.17;;;;;;;15.23;100.00;96996.00;5029089;28;105365;-62
2022/08/10 00:28:49;;;;;;;3.37;3.00;;;;;;;15.27;100.00;96989.06;5033231;28;101930;-62
2022/08/10 00:31:16;;;;;;;2.83;2.63;;;;;;;15.42;100.00;96992.59;5029176;28;105337;-62
2022/08/10 00:33:44;;;;;;;3.57;3.37;;;;;;;15.11;100.00;96985.56;5028281;28;101967;-62
2022/08/10 00:36:11;;;;;;;4.20;2.80;;;;;;;14.92;100.00;96987.09;5029541;28;105079;-62
2022/08/10 00:38:38;;;;;;;3.23;3.03;;;;;;;14.89;100.00;96976.88;5029078;28;106501;-62
2022/08/10 00:41:06;;;;;;;3.40;3.20;;;;;;;14.65;100.00;96985.63;5029855;28;101985;-62
2022/08/10 00:43:35;;;;;;;3.13;2.93;;;;;;;14.76;100.00;96981.91;5029717;28;103016;-62
2022/08/10 00:46:02;;;;;;;2.93;2.73;;;;;;;14.81;100.00;96981.94;5062998;27;106054;-62
2022/08/10 00:48:31;;;;;;;3.17;2.97;;;;;;;14.74;100.00;96979.53;5029340;28;101876;-62
2022/08/10 00:50:59;;;;;;;3.07;2.80;;;;;;;14.93;100.00;96977.97;5033715;28;102304;-62
2022/08/10 00:53:27;;;;;;;3.40;2.90;;;;;;;14.95;100.00;96981.22;5030817;28;101825;-62
2022/08/10 00:55:55;;;;;;;4.37;3.10;;;;;;;14.88;100.00;96980.63;5029562;28;104059;-62
2022/08/10 00:58:22;;;;;;;3.57;3.27;;;;;;;14.97;100.00;96979.06;5028658;28;104045;-62
2022/08/10 01:00:50;;;;;;;3.00;2.80;;;;;;;14.94;100.00;96984.16;5029035;28;101768;-62
2022/08/10 01:03:17;;;;;;;3.93;3.63;;;;;;;15.07;100.00;96980.97;5029195;28;105235;-62
2022/08/10 01:05:56;;;;;;;3.30;3.00;;;;;;;14.85;100.00;96985.72;5028875;28;104240;-62
2022/08/10 01:08:32;;;;;;;3.70;3.40;;;;;;;14.80;100.00;96988.38;5029223;28;101987;-62
2022/08/10 01:11:08;;;;;;;3.10;2.90;;;;;;;14.76;100.00;96984.59;5031954;28;105340;-62
2022/08/10 01:13:41;;;;;;;3.70;3.40;;;;;;;14.84;100.00;96982.25;5029217;28;101835;-62
2022/08/10 01:16:18;;;;;;;3.70;3.40;;;;;;;14.72;100.00;96986.22;5028975;28;103553;-62
2022/08/10 01:18:53;;;;;;;3.23;3.00;;;;;;;14.60;100.00;96982.94;5028418;28;105725;-62
2022/08/10 01:22:04;;;;;;;3.60;3.30;;;;;;;14.68;100.00;96977.09;5028901;28;102152;-62
2022/08/10 01:24:50;;;;;;;3.40;3.20;;;;;;;14.74;100.00;96984.88;5028214;28;104139;-62
2022/08/10 01:27:27;;;;;;;3.67;3.37;;;;;;;14.36;100.00;96989.78;5028187;28;105327;-62
2022/08/10 01:30:00;;;;;;;3.50;3.23;;;;;;;14.13;100.00;96993.63;5030460;28;101886;-62
2022/08/10 01:32:35;;;;;;;3.30;3.10;;;;;;;14.14;100.00;96991.75;5030351;28;102551;-62
2022/08/10 01:35:11;;;;;;;3.53;3.20;;;;;;;14.17;100.00;96999.28;5033395;27;103055;-62
2022/08/10 01:37:46;;;;;;;3.27;3.03;;;;;;;14.31;100.00;96985.22;5028907;28;104221;-62
2022/08/10 01:40:16;;;;;;;3.40;3.10;;;;;;;14.37;100.00;96988.69;5028320;28;105776;-62
2022/08/10 01:42:45;;;;;;;4.07;3.77;;;;;;;14.46;100.00;96984.47;5028506;28;102229;-62
2022/08/10 01:45:16;;;;;;;3.70;3.50;;;;;;;14.37;100.00;96986.84;5028109;28;105650;-62
2022/08/10 01:50:34;;;;;;;4.03;3.73;;;;;;;14.40;100.00;96990.88;5028734;28;101873;-62
2022/08/10 01:53:05;;;;;;;3.67;3.40;;;;;;;14.30;100.00;96988.13;5028790;28;105591;-62
2022/08/10 01:55:34;;;;;;;4.07;3.77;;;;;;;14.25;100.00;96990.78;5027780;28;105611;-62
2022/08/10 01:58:05;;;;;;;3.70;3.50;;;;;;;14.25;100.00;96998.81;5032099;28;102323;-62
2022/08/10 02:00:38;;;;;;;10.27;3.57;;;;;;;14.15;100.00;96998.69;5061782;27;103752;-62
2022/08/10 02:03:08;;;;;;;4.03;3.73;;;;;;;14.15;100.00;96991.50;5028331;28;102048;-62
2022/08/10 02:05:39;;;;;;;4.23;3.87;;;;;;;14.16;100.00;96995.78;5029981;28;101759;-62
2022/08/10 02:08:09;;;;;;;4.30;3.90;;;;;;;14.13;100.00;96998.97;5061785;27;105299;-62
2022/08/10 02:10:39;;;;;;;3.90;3.70;;;;;;;14.05;100.00;96998.63;5029765;28;102035;-62
2022/08/10 02:13:08;;;;;;;4.50;4.10;;;;;;;14.13;100.00;96998.97;5028392;28;104987;-62
2022/08/10 02:15:40;;;;;;;4.60;4.30;;;;;;;14.11;100.00;96994.94;5027562;28;105469;-62
2022/08/10 02:18:09;;;;;;;4.57;4.13;;;;;;;14.00;100.00;96996.72;5029851;27;101812;-62
2022/08/10 02:20:41;;;;;;;3.90;3.63;;;;;;;13.97;100.00;96988.41;5031079;28;103503;-62
2022/08/10 02:23:11;;;;;;;4.77;4.20;;;;;;;13.89;100.00;96988.91;5029938;27;101770;-62
2022/08/10 02:25:40;;;;;;;3.80;3.50;;;;;;;13.63;100.00;96992.44;5029698;28;102431;-62
2022/08/10 02:28:09;;;;;;;4.13;3.83;;;;;;;13.60;100.00;96992.94;5028685;28;102802;-62
2022/08/10 02:30:39;;;;;;;3.70;3.50;;;;;;;13.54;100.00;96993.94;5029420;28;102265;-62
2022/08/10 02:33:08;;;;;;;4.10;3.80;;;;;;;13.24;100.00;96991.00;5029801;27;102294;-62
2022/08/10 02:35:37;;;;;;;4.47;3.57;;;;;;;13.45;100.00;96995.47;5027461;28;103846;-62
2022/08/10 02:38:07;;;;;;;3.80;3.50;;;;;;;13.58;100.00;96984.38;5028138;28;102012;-62
2022/08/10 02:40:39;;;;;;;4.00;3.70;;;;;;;13.56;100.00;96986.47;5028107;28;104025;-62
2022/08/10 02:43:18;;;;;;;5.03;3.70;;;;;;;13.30;100.00;96982.78;5032169;28;102694;-62
2022/08/10 02:45:49;;;;;;;4.43;4.13;;;;;;;13.47;100.00;96983.47;5029741;28;102339;-62
2022/08/10 02:48:20;;;;;;;4.30;4.00;;;;;;;13.49;100.00;96985.88;5028771;27;102547;-62
2022/08/10 02:50:56;;;;;;;3.90;3.60;;;;;;;13.46;100.00;96984.53;5029476;28;101723;-62
2022/08/10 02:53:30;;;;;;;3.70;3.40;;;;;;;13.32;100.00;96986.03;5029507;28;102537;-62
2022/08/10 02:56:03;;;;;;;4.50;4.10;;;;;;;13.35;100.00;96985.50;5029010;27;102923;-62
2022/08/10 02:58:35;;;;;;;4.30;4.00;;;;;;;13.40;100.00;96980.19;5032509;28;101995;-62
2022/08/10 03:01:07;;;;;;;4.40;4.07;;;;;;;13.36;100.00;96981.75;5032747;28;102479;-62
2022/08/10 03:03:44;;;;;;;4.30;4.00;;;;;;;13.28;100.00;96984.09;5032240;28;102666;-62
2022/08/10 03:06:15;;;;;;;4.80;4.40;;;;;;;13.41;100.00;96981.03;5036134;28;101820;-62
2022/08/10 03:08:45;;;;;;;4.47;4.07;;;;;;;13.27;100.00;96983.28;5032091;27;102624;-62
2022/08/10 03:11:20;;;;;;;4.37;3.97;;;;;;;13.23;100.00;96989.38;5032329;28;101864;-62
2022/08/10 03:13:49;;;;;;;5.07;4.53;;;;;;;13.29;100.00;96991.84;5031174;28;104815;-62
2022/08/10 03:16:19;;;;;;;4.87;4.47;;;;;;;13.06;100.00;96991.34;5029929;28;105238;-62
2022/08/10 03:18:48;;;;;;;4.60;4.20;;;;;;;13.03;100.00;96989.19;5032542;28;101772;-62
2022/08/10 03:21:17;;;;;;;3.90;3.60;;;;;;;13.02;100.00;96991.03;5030877;28;105074;-62
2022/08/10 03:23:45;;;;;;;3.90;3.60;;;;;;;13.06;100.00;96991.34;5030093;28;104633;-62
2022/08/10 03:26:15;;;;;;;3.97;3.70;;;;;;;12.90;100.00;96986.84;5034313;28;101937;-62
2022/08/10 03:28:43;;;;;;;4.60;4.20;;;;;;;12.80;100.00;96986.75;5030080;28;105093;-62
2022/08/10 03:31:12;;;;;;;4.50;4.20;;;;;;;12.88;100.00;96986.31;5030495;28;101981;-62
2022/08/10 03:33:42;;;;;;;5.10;4.43;;;;;;;12.96;100.00;96981.38;5032026;28;102559;-62
2022/08/10 03:36:10;;;;;;;4.57;4.27;;;;;;;12.94;100.00;96979.97;5030029;28;104328;-62
2022/08/10 03:38:39;;;;;;;4.93;4.53;;;;;;;12.71;100.00;96982.91;5030734;28;101893;-62
2022/08/10 03:41:11;;;;;;;5.47;4.60;;;;;;;12.88;100.00;96986.31;5030639;28;105032;-62
2022/08/10 03:43:43;;;;;;;4.47;4.07;;;;;;;12.95;100.00;96981.56;5029791;28;104393;-62
2022/08/10 03:46:11;;;;;;;4.20;3.90;;;;;;;12.96;100.00;96980.53;5030613;28;101969;-62
2022/08/10 03:48:42;;;;;;;4.50;4.10;;;;;;;12.88;100.00;96983.63;5033182;28;105432;-62
2022/08/10 03:51:11;;;;;;;4.60;4.20;;;;;;;12.93;100.00;96986.38;5030563;28;102111;-62
2022/08/10 03:53:39;;;;;;;5.40;5.00;;;;;;;12.84;100.00;96979.84;5030197;28;105727;-62
2022/08/10 03:56:07;;;;;;;4.50;4.10;;;;;;;12.94;100.00;96987.97;5029398;28;104553;-62
2022/08/10 03:58:35;;;;;;;5.20;4.80;;;;;;;12.99;100.00;96990.72;5030066;28;101963;-62
2022/08/10 04:01:03;;;;;;;4.87;4.47;;;;;;;13.00;100.00;96993.16;5030356;28;105310;-62
2022/08/10 04:03:31;;;;;;;5.10;4.70;;;;;;;12.89;100.00;96996.75;5029774;28;105249;-62
2022/08/10 04:05:59;;;;;;;4.80;4.47;;;;;;;12.64;100.00;96995.63;5028174;28;102120;-62
2022/08/10 04:08:26;;;;;;;4.90;4.50;;;;;;;12.65;100.00;96994.59;5029718;27;105373;-62
2022/08/10 04:10:53;;;;;;;5.10;4.70;;;;;;;12.65;100.00;96999.91;5032561;28;105525;-62
2022/08/10 04:13:21;;;;;;;5.00;4.60;;;;;;;12.77;100.00;96997.91;5030163;28;105705;-62
2022/08/10 04:15:49;;;;;;;5.73;4.70;;;;;;;12.85;100.00;96986.78;5029343;28;105079;-62
2022/08/10 04:18:16;;;;;;;4.73;4.33;;;;;;;12.69;100.00;96982.34;5029956;28;101985;-62
2022/08/10 04:20:48;;;;;;;5.63;4.63;;;;;;;12.69;100.00;96985.00;5029769;28;104852;-62
2022/08/10 04:23:21;;;;;;;5.30;4.90;;;;;;;12.77;100.00;96984.56;5029413;28;105348;-62
2022/08/10 04:25:50;;;;;;;7.37;5.10;;;;;;;12.76;100.00;96981.09;5029816;28;101914;-62
2022/08/10 04:28:17;;;;;;;7.23;4.90;;;;;;;12.85;100.00;96992.94;5029586;28;104934;-62
2022/08/10 04:30:46;;;;;;;5.30;4.90;;;;;;;12.90;100.00;96987.66;5029168;28;105645;-62
2022/08/10 04:33:17;;;;;;;5.60;5.10;;;;;;;12.81;100.00;96989.16;5033306;28;102266;-62
2022/08/10 04:35:46;;;;;;;5.70;5.03;;;;;;;12.77;100.00;96989.91;5063107;27;106826;-62
2022/08/10 04:38:16;;;;;;;5.63;5.23;;;;;;;13.00;100.00;96990.50;5029795;28;101976;-62
2022/08/10 04:40:46;;;;;;;5.20;4.80;;;;;;;13.09;100.00;96990.84;5029450;28;105636;-62
2022/08/10 04:43:14;;;;;;;6.10;5.50;;;;;;;13.10;100.00;96990.59;5030265;28;102645;-62
2022/08/10 04:45:42;;;;;;;5.50;5.10;;;;;;;13.15;100.00;96993.34;5031168;27;101738;-62
2022/08/10 04:48:10;;;;;;;5.40;4.90;;;;;;;13.33;100.00;96992.16;5030985;27;102548;-62
2022/08/10 04:50:37;;;;;;;6.10;5.40;;;;;;;13.35;100.00;96987.38;5030355;28;102805;-62
2022/08/10 04:53:04;;;;;;;6.43;5.93;;;;;;;13.43;100.00;96986.91;5029435;28;102184;-62
2022/08/10 04:55:31;;;;;;;6.50;5.90;;;;;;;13.54;100.00;96988.59;5033528;28;102587;-62
2022/08/10 04:58:00;;;;;;;6.97;6.13;;;;;;;13.65;100.00;96990.31;5029194;28;102228;-62
2022/08/10 05:00:27;;;;;;;6.43;5.93;;;;;;;13.82;100.00;96991.78;5029359;28;105086;-62
2022/08/10 05:02:54;;;;;;;6.13;5.70;;;;;;;13.94;100.00;96992.41;5028695;28;105327;-62
2022/08/10 05:05:21;;;;;;;7.13;6.47;;;;;;;14.06;100.00;96992.25;5029267;28;101912;-62
2022/08/10 05:07:49;;;;;;;6.73;6.10;;;;;;;14.21;100.00;96997.69;5030445;28;102617;-62
2022/08/10 05:10:16;;;;;;;7.10;6.47;;;;;;;14.28;100.00;96996.41;5062472;27;103980;-62
2022/08/10 05:12:43;;;;;;;6.30;5.80;;;;;;;14.47;100.00;96994.94;5029216;28;102017;-62
2022/08/10 05:15:13;;;;;;;6.23;5.73;;;;;;;14.60;100.00;96997.13;5028977;28;105515;-62
2022/08/10 05:17:42;;;;;;;7.80;7.03;;;;;;;14.75;100.00;96997.19;5031826;28;101950;-62
2022/08/10 05:20:12;;;;;;;6.40;5.90;;;;;;;14.94;100.00;96990.28;5028194;28;103515;-62
2022/08/10 05:22:40;;;;;;;6.87;6.17;;;;;;;15.11;100.00;96990.09;5062021;27;104699;-62
2022/08/10 05:25:10;;;;;;;6.77;6.07;;;;;;;15.10;100.00;96991.16;5028612;28;101888;-62
2022/08/10 05:27:39;;;;;;;6.97;6.33;;;;;;;15.21;100.00;96990.91;5029154;28;103510;-62
2022/08/10 05:30:10;;;;;;;6.40;5.90;;;;;;;15.01;100.00;96996.22;5028290;28;105204;-62
2022/08/10 05:32:39;;;;;;;6.43;5.70;;;;;;;15.24;100.00;97001.13;5029988;27;101922;-62
2022/08/10 05:35:07;;;;;;;6.20;5.60;;;;;;;15.40;100.00;97004.66;5028788;28;105218;-62
2022/08/10 05:37:35;;;;;;;6.20;5.57;;;;;;;15.22;100.00;97002.44;5031603;28;106412;-62
2022/08/10 05:40:05;;;;;;;6.10;5.50;;;;;;;15.09;100.00;97000.28;5028848;28;103894;-62
2022/08/10 05:42:32;;;;;;;5.47;4.97;;;;;;;15.08;100.00;96995.97;5028020;28;106036;-62
2022/08/10 05:45:00;;;;;;;5.67;5.17;;;;;;;15.13;100.00;96998.66;5028829;28;101959;-62
2022/08/10 05:47:27;;;;;;;6.00;5.60;;;;;;;15.13;100.00;97002.16;5028969;28;104948;-62
2022/08/10 05:49:56;;;;;;;6.20;5.63;;;;;;;15.34;100.00;96997.66;5027981;28;105759;-62
2022/08/10 05:52:23;;;;;;;5.60;5.20;;;;;;;15.36;100.00;96998.22;5028499;28;101853;-62
2022/08/10 05:54:51;;;;;;;5.43;5.03;;;;;;;15.31;100.00;96995.50;5062594;27;105014;-62
2022/08/10 05:57:22;;;;;;;5.20;4.80;;;;;;;15.35;100.00;96993.91;5027818;28;105481;-62
2022/08/10 05:59:59;;;;;;;5.40;4.90;;;;;;;15.51;100.00;96990.19;5032109;28;101830;-62
2022/08/10 06:02:31;;;;;;;5.20;4.80;;;;;;;15.52;100.00;96992.63;5027698;28;105484;-62
2022/08/10 06:05:05;;;;;;;5.07;4.67;;;;;;;15.51;100.00;97003.59;5028472;28;101807;-62
2022/08/10 06:07:34;;;;;;;5.17;4.77;;;;;;;15.50;100.00;97002.00;5028435;28;105093;-62
2022/08/10 06:10:02;;;;;;;5.70;5.20;;;;;;;15.71;100.00;97000.94;5028897;28;104341;-62
2022/08/10 06:12:31;;;;;;;5.77;5.00;;;;;;;15.76;100.00;96998.25;5028341;28;101874;-62
2022/08/10 06:15:00;;;;;;;4.80;4.40;;;;;;;15.76;100.00;96998.25;5062093;27;104789;-62
2022/08/10 06:17:29;;;;;;;6.07;4.53;;;;;;;15.95;100.00;96996.63;5027539;28;105774;-62
2022/08/10 06:19:57;;;;;;;5.50;4.73;;;;;;;16.13;100.00;96998.78;5028277;28;101950;-62
2022/08/10 06:22:27;;;;;;;5.50;4.47;;;;;;;16.22;100.00;97006.03;5031136;28;105568;-62
2022/08/10 06:24:56;;;;;;;5.80;5.30;;;;;;;16.26;100.00;96993.69;5028119;28;101968;-62
2022/08/10 06:27:23;;;;;;;5.30;4.90;;;;;;;16.37;100.00;97000.63;5028140;28;105419;-62
2022/08/10 06:29:53;;;;;;;5.10;4.80;;;;;;;16.52;100.00;96997.13;5027531;27;104531;-62
2022/08/10 06:32:24;;;;;;;5.27;4.70;;;;;;;16.89;100.00;96994.88;5065670;27;102009;-62
2022/08/10 06:34:56;;;;;;;6.23;4.60;;;;;;;17.08;100.00;97006.59;5031548;28;104046;-62
2022/08/10 06:37:27;;;;;;;5.10;4.60;;;;;;;17.02;100.00;96999.63;5031155;28;105251;-62
2022/08/10 06:39:55;;;;;;;5.43;4.97;;;;;;;16.98;100.00;96998.56;5031755;28;102089;-62
2022/08/10 06:42:28;;;;;;;4.83;4.43;;;;;;;17.45;100.00;96990.81;5031208;28;106270;-62
2022/08/10 06:44:59;;;;;;;5.10;4.60;;;;;;;17.61;100.00;97005.78;5034370;28;105914;-62
2022/08/10 06:47:31;;;;;;;5.07;4.63;;;;;;;17.80;100.00;97009.41;5031670;28;105105;-62
2022/08/10 06:50:02;;;;;;;4.57;4.27;;;;;;;18.18;100.00;97000.47;5030575;28;105759;-62
2022/08/10 06:52:34;;;;;;;5.27;4.30;;;;;;;18.42;100.00;96995.97;5031563;28;101955;-62
2022/08/10 06:55:02;;;;;;;4.70;4.40;;;;;;;18.46;100.00;96992.41;5032836;28;102634;-62
2022/08/10 06:57:34;;;;;;;7.43;4.80;;;;;;;18.04;100.00;96999.53;5030600;28;105425;-62
2022/08/10 07:00:03;;;;;;;5.47;4.30;;;;;;;18.19;100.00;96997.50;5031224;28;101940;-62
2022/08/10 07:02:35;;;;;;;4.50;4.10;;;;;;;18.58;100.00;97000.13;5031234;28;105388;-62
2022/08/10 07:05:05;;;;;;;4.70;4.30;;;;;;;18.91;100.00;96996.50;5030318;28;105020;-62
2022/08/10 07:07:39;;;;;;;4.83;4.43;;;;;;;19.10;100.00;96981.97;5036124;28;101808;-62
2022/08/10 07:10:09;;;;;;;4.93;4.03;;;;;;;19.22;100.00;96979.66;5030625;28;105250;-62
2022/08/10 07:12:38;;;;;;;5.93;4.20;;;;;;;19.19;100.00;96974.81;5030996;28;101956;-62
2022/08/10 07:15:09;;;;;;;4.97;3.97;;;;;;;19.25;100.00;96975.59;5030725;28;103636;-62
2022/08/10 07:17:37;;;;;;;4.27;3.90;;;;;;;19.35;100.00;96972.75;5031944;28;102934;-62
2022/08/10 07:20:08;;;;;;;4.30;4.00;;;;;;;19.52;100.00;96968.44;5030800;28;102148;-62
2022/08/10 07:22:40;;;;;;;4.30;3.80;;;;;;;19.87;100.00;96964.38;5030875;28;105513;-62
2022/08/10 07:25:09;;;;;;;4.20;3.80;;;;;;;20.01;100.00;96959.84;5029877;28;105296;-62
2022/08/10 07:27:38;;;;;;;4.40;3.63;;;;;;;20.06;100.00;96960.53;5035532;27;101854;-62
2022/08/10 07:30:07;;;;;;;3.97;3.60;;;;;;;20.35;100.00;96950.34;5030342;28;105408;-62
2022/08/10 07:32:37;;;;;;;4.73;3.73;;;;;;;20.36;100.00;96957.34;5014010;28;101997;-62
2022/08/10 07:35:07;;;;;;;4.03;3.03;;;;;;;20.75;100.00;96957.66;5030642;28;105318;-62
2022/08/10 07:37:39;;;;;;;3.40;2.73;;;;;;;21.10;100.00;96956.94;5029850;28;105162;-62
2022/08/10 07:40:09;;;;;;;3.57;2.70;;;;;;;21.27;100.00;96950.91;5030705;28;101833;-62
2022/08/10 07:42:39;;;;;;;3.07;2.53;;;;;;;21.48;100.00;96952.06;5030038;28;105294;-62
2022/08/10 07:45:07;;;;;;;3.10;2.80;;;;;;;21.75;100.00;96952.78;5030035;28;105492;-62
2022/08/10 07:47:40;;;;;;;2.90;2.43;;;;;;;22.05;100.00;96956.66;5030444;28;101937;-62
2022/08/10 07:50:11;;;;;;;2.83;2.50;;;;;;;22.14;100.00;96952.91;5033132;28;105291;-62
2022/08/10 07:52:40;;;;;;;3.20;2.17;;;;;;;22.29;100.00;96949.78;5031755;28;101848;-62
2022/08/10 07:55:13;;;;;;;2.93;2.47;;;;;;;22.61;100.00;96940.59;5030473;28;104181;-62
2022/08/10 07:57:43;;;;;;;3.13;2.13;;;;;;;22.82;100.00;96947.00;5029594;28;105807;-62
2022/08/10 08:00:11;;;;;;;3.17;2.20;;;;;;;23.00;100.00;96937.81;5031582;28;101748;-62
2022/08/10 08:02:45;;;;;;;3.73;2.30;;;;;;;23.11;100.00;96939.13;5030133;28;104875;-62
2022/08/10 08:05:14;;;;;;;2.33;1.60;;;;;;;23.25;100.00;96937.09;5029669;28;105489;-62
2022/08/10 08:07:46;;;;;;;3.53;2.00;;;;;;;23.40;100.00;96951.03;5031434;28;101881;-62
2022/08/10 08:10:16;;;;;;;4.03;1.97;;;;;;;23.50;100.00;96939.03;5030051;28;105607;-62
2022/08/10 08:12:45;;;;;;;3.10;1.83;;;;;;;23.47;96.00;96945.09;5032972;28;105727;-62
2022/08/10 08:15:15;;;;;;;2.30;1.60;;;;;;;23.75;98.41;96935.53;5031207;28;103987;-62
2022/08/10 08:17:43;;;;;;;2.23;1.70;;;;;;;23.70;94.95;96941.13;5029087;28;105401;-62
2022/08/10 08:20:12;;;;;;;1.63;1.53;;;;;;;23.77;92.93;96938.72;5030198;28;101889;-62
2022/08/10 08:22:40;;;;;;;2.30;1.80;;;;;;;24.05;92.02;96934.56;5030156;28;104565;-62
2022/08/10 08:25:10;;;;;;;1.90;1.70;;;;;;;24.12;92.11;96941.09;5028664;28;105284;-62
2022/08/10 08:27:39;;;;;;;2.37;1.63;;;;;;;24.25;95.45;96945.53;5031123;28;101804;-62
2022/08/10 08:30:08;;;;;;;3.37;1.60;;;;;;;24.54;84.07;96936.66;5029939;28;105141;-62
2022/08/10 08:32:37;;;;;;;4.80;1.40;;;;;;;24.41;79.63;96938.44;5029248;28;104998;-62
2022/08/10 08:35:10;;;;;;;1.97;1.60;;;;;;;24.45;76.13;96938.59;5033357;28;102090;-62
2022/08/10 08:37:39;;;;;;;3.40;1.73;;;;;;;24.82;77.57;96937.84;5030589;28;102564;-62
2022/08/10 08:40:13;;;;;;;1.90;1.67;;;;;;;24.72;76.17;96935.47;5030960;28;101744;-62
2022/08/10 08:43:10;;;;;;;3.70;1.50;;;;;;;24.80;72.97;96934.66;5029455;28;106401;-62
2022/08/10 08:45:47;;;;;;;2.50;1.40;;;;;;;24.98;74.07;96939.69;5019182;27;102810;-62
2022/08/10 08:48:35;;;;;;;2.50;1.73;;;;;;;24.75;68.74;96937.56;5029770;28;101697;-62
2022/08/10 08:51:14;;;;;;;4.03;1.40;;;;;;;25.24;68.60;96931.38;5029639;28;103714;-62
2022/08/10 08:53:58;;;;;;;2.27;1.60;;;;;;;25.46;59.89;96926.44;5027666;28;104412;-62
2022/08/10 08:56:31;;;;;;;1.97;1.70;;;;;;;25.34;62.74;96922.84;5029408;28;101952;-62
2022/08/10 08:59:11;;;;;;;2.40;1.40;;;;;;;25.29;63.57;96925.75;5032215;28;105254;-62
2022/08/10 09:02:01;;;;;;;2.90;1.30;;;;;;;25.21;64.48;96927.38;5029415;28;101868;-62
2022/08/10 09:04:52;;;;;;;1.50;1.40;;;;;;;25.17;63.93;96915.53;5029426;28;105078;-62
2022/08/10 09:08:01;;;;;;;1.73;1.40;;;;;;;25.49;60.10;96922.22;5028642;28;105699;-62
2022/08/10 09:10:39;;;;;;;4.47;1.60;;;;;;;25.86;57.88;96921.28;5029274;28;101951;-62
2022/08/10 09:13:25;;;;;;;1.30;1.20;;;;;;;26.04;56.32;96914.56;5063244;27;105670;-62
2022/08/10 09:16:02;;;;;;;4.90;1.60;;;;;;;26.00;54.89;96921.81;5028244;28;105554;-62
2022/08/10 09:18:38;;;;;;;1.60;1.30;;;;;;;26.01;55.10;96916.03;5029153;28;101979;-62
2022/08/10 09:21:13;;;;;;;1.23;1.20;;;;;;;25.88;51.83;96917.09;5029261;28;105485;-62
2022/08/10 09:23:45;;;;;;;5.40;1.40;;;;;;;25.72;54.09;96918.06;5031563;28;103964;-62
2022/08/10 09:26:20;;;;;;;1.53;1.10;;;;;;;25.90;52.39;96924.94;5028795;28;104977;-62
2022/08/10 09:28:51;;;;;;;3.30;1.30;;;;;;;26.25;52.59;96921.56;5028262;28;105436;-62
2022/08/10 09:31:23;;;;;;;1.80;1.30;;;;;;;26.55;49.70;96927.66;5029075;28;101758;-62
2022/08/10 09:33:56;;;;;;;1.47;1.20;;;;;;;26.53;49.55;96925.25;5028770;28;105079;-62
2022/08/10 09:36:33;;;;;;;1.13;1.13;;;;;;;26.63;46.54;96918.56;5028275;28;104081;-62
2022/08/10 09:39:11;;;;;;;2.33;1.30;;;;;;;26.66;50.47;96923.34;5028893;28;101759;-62
2022/08/10 09:41:49;;;;;;;1.60;1.10;;;;;;;26.68;46.46;96910.16;5028794;28;104480;-62
2022/08/10 09:44:33;;;;;;;1.63;1.30;;;;;;;26.68;44.85;96918.34;5031590;28;103816;-62
2022/08/10 09:47:25;;;;;;;1.77;1.10;;;;;;;27.02;44.45;96917.91;5028610;28;105362;-62
2022/08/10 09:50:12;;;;;;;1.93;1.30;;;;;;;27.02;43.27;96913.22;5028006;28;106621;-62
2022/08/10 09:52:51;;;;;;;1.33;1.23;;;;;;;27.10;42.21;96914.25;5030345;28;101739;-62
2022/08/10 09:55:28;;;;;;;1.20;1.10;;;;;;;27.08;43.01;96911.09;5028710;28;105072;-62
2022/08/10 09:58:01;;;;;;;1.63;1.10;;;;;;;27.11;42.67;96913.09;5027585;28;106635;-62
2022/08/10 10:00:46;;;;;;;1.23;1.13;;;;;;;27.13;41.91;96910.84;5028630;28;102137;-62
2022/08/10 10:03:20;;;;;;;3.23;1.10;;;;;;;27.21;41.42;96915.41;5028512;28;105825;-62
2022/08/10 10:05:53;;;;;;;2.60;1.23;;;;;;;27.32;42.10;96906.41;5029612;27;105317;-62
2022/08/10 10:08:28;;;;;;;1.17;1.00;;;;;;;27.20;41.06;96902.91;5035550;28;101921;-62
2022/08/10 10:11:04;;;;;;;4.73;1.10;;;;;;;27.55;42.27;96895.75;5031519;28;105000;-62
2022/08/10 10:13:40;;;;;;;2.73;1.27;;;;;;;27.86;42.31;96901.38;5031989;28;101878;-62
2022/08/10 10:16:26;;;;;;;1.30;1.20;;;;;;;28.03;42.46;96901.06;5031781;28;105597;-62
2022/08/10 10:19:04;;;;;;;2.73;1.30;;;;;;;27.62;41.75;96904.16;5032666;28;103124;-62
2022/08/10 10:21:42;;;;;;;1.20;1.10;;;;;;;27.88;40.01;96894.41;5031864;28;101807;-62
2022/08/10 10:24:21;;;;;;;1.63;1.20;;;;;;;27.80;41.40;96897.28;5031423;28;105391;-62
2022/08/10 10:26:52;;;;;;;2.77;1.03;;;;;;;27.88;38.57;96897.13;5030865;28;105506;-62
2022/08/10 10:29:31;;;;;;;1.43;1.00;;;;;;;27.74;40.38;96893.19;5031868;28;101988;-62
2022/08/10 10:32:06;;;;;;;2.50;1.00;;;;;;;27.84;39.37;96903.66;5034575;28;105172;-62
2022/08/10 10:34:41;;;;;;;1.13;1.00;;;;;;;27.71;40.51;96896.59;5033041;28;101746;-62
2022/08/10 10:37:10;;;;;;;3.27;1.20;;;;;;;28.05;41.37;96885.88;5031677;28;105352;-62
2022/08/10 10:39:42;;;;;;;1.53;1.10;;;;;;;28.03;39.80;96892.84;5031016;28;105168;-62
2022/08/10 10:42:23;;;;;;;1.90;1.10;;;;;;;27.91;39.07;96895.66;5031251;28;101887;-62
2022/08/10 10:45:03;;;;;;;2.67;1.20;;;;;;;27.91;39.24;96895.66;5033297;28;102914;-62
2022/08/10 10:47:49;;;;;;;1.67;1.00;;;;;;;28.04;38.86;96889.78;5032487;27;102682;-62
2022/08/10 10:50:21;;;;;;;1.10;1.03;;;;;;;28.53;38.70;96888.34;5031472;28;101941;-62
2022/08/10 10:53:03;;;;;;;2.30;1.00;;;;;;;28.62;39.11;96882.69;5032317;27;102472;-62
2022/08/10 10:55:38;;;;;;;1.20;1.00;;;;;;;28.78;38.79;96878.00;5035693;28;102770;-62
2022/08/10 10:58:15;;;;;;;1.10;0.90;;;;;;;28.64;37.95;96885.88;5032723;28;102613;-62
2022/08/10 11:00:50;;;;;;;1.13;1.00;;;;;;;29.08;37.92;96879.94;5031897;28;102607;-62
2022/08/10 11:04:05;;;;;;;2.17;1.20;;;;;;;28.49;37.67;96867.53;5031269;28;102002;-62
2022/08/10 11:06:44;;;;;;;1.43;0.97;;;;;;;28.95;36.31;96880.38;5003825;28;105088;-62
2022/08/10 11:09:18;;;;;;;1.30;1.10;;;;;;;28.80;37.06;96876.50;5030683;28;104386;-62
2022/08/10 11:11:48;;;;;;;0.98;0.82;;;;;;;29.01;36.86;96881.72;5031095;28;101955;-62
2022/08/10 11:14:25;;;;;;;2.35;1.02;;;;;;;28.99;36.55;96876.59;5030778;28;105384;-62
2022/08/10 11:16:57;;;;;;;2.03;0.90;;;;;;;28.42;37.22;96875.53;5029178;27;105127;-62
2022/08/10 11:19:36;;;;;;;2.65;1.20;;;;;;;28.40;39.02;96875.88;5034397;28;102077;-62
2022/08/10 11:22:12;;;;;;;4.13;1.20;;;;;;;28.58;39.56;96877.16;5030162;28;104159;-62
2022/08/10 11:24:49;;;;;;;1.00;0.90;;;;;;;28.79;38.44;96882.34;5030387;28;101850;-62
2022/08/10 11:27:25;;;;;;;1.00;1.00;;;;;;;28.57;37.61;96875.56;5030843;28;105130;-62
2022/08/10 11:30:00;;;;;;;1.90;0.90;;;;;;;28.76;38.14;96881.09;5029915;28;105797;-62
2022/08/10 11:32:35;;;;;;;1.02;0.95;;;;;;;29.06;36.95;96881.44;5030931;28;101906;-62
2022/08/10 11:35:14;;;;;;;3.53;0.95;;;;;;;29.08;37.38;96887.34;5030743;28;103788;-62
2022/08/10 11:37:49;;;;;;;1.43;1.07;;;;;;;28.87;36.43;96875.91;5029986;28;105994;-62
2022/08/10 11:40:24;;;;;;;1.67;0.82;;;;;;;29.55;37.68;96885.31;5064411;27;101847;-62
2022/08/10 11:43:07;;;;;;;2.72;1.20;;;;;;;29.25;35.98;96882.28;5033513;28;104892;-62
2022/08/10 11:45:36;;;;;;;1.58;1.20;;;;;;;29.35;35.89;96878.16;5030648;28;101834;-62